createdAt,value
2023-06-30T00:01:59.750Z,99978.92
2023-06-30T00:04:31.766Z,99975.78
2023-06-30T00:07:15.888Z,99971.40
2023-06-30T00:09:46.009Z,99969.96
2023-06-30T00:12:13.853Z,99974.65
2023-06-30T00:14:44.389Z,99984.33
2023-06-30T00:17:15.228Z,99983.00
2023-06-30T00:19:46.159Z,99981.48
2023-06-30T00:22:14.041Z,99978.09
2023-06-30T00:24:42.214Z,99975.75
2023-06-30T00:27:10.104Z,99973.76
2023-06-30T00:29:37.940Z,99971.03
2023-06-30T00:32:11.258Z,99969.52
2023-06-30T00:34:39.006Z,99968.79
2023-06-30T00:37:08.627Z,99972.45
2023-06-30T00:39:36.374Z,99971.86
2023-06-30T00:42:04.975Z,99973.11
2023-06-30T00:44:33.952Z,99979.63
2023-06-30T00:47:13.147Z,99980.99
2023-06-30T00:49:45.692Z,99981.61
2023-06-30T00:52:13.641Z,99987.93
2023-06-30T00:54:47.132Z,99989.92
2023-06-30T00:57:21.965Z,99989.09
2023-06-30T00:59:50.137Z,99986.18
2023-06-30T01:02:26.036Z,99990.29
2023-06-30T01:05:17.941Z,99989.25
2023-06-30T01:07:52.445Z,99992.90
2023-06-30T01:10:22.983Z,99998.97
2023-06-30T01:12:51.167Z,100002.98
2023-06-30T01:15:19.055Z,100004.38
2023-06-30T01:17:53.894Z,100002.71
2023-06-30T01:20:22.455Z,100010.60
2023-06-30T01:22:50.941Z,100014.60
2023-06-30T01:25:20.838Z,100009.18
2023-06-30T01:27:54.559Z,100012.26
2023-06-30T01:30:34.354Z,100015.83
2023-06-30T01:33:10.099Z,100021.11
2023-06-30T01:35:43.117Z,100016.40
2023-06-30T01:38:16.847Z,100014.64
2023-06-30T01:40:48.292Z,100018.04
2023-06-30T01:43:19.253Z,100017.33
2023-06-30T01:45:51.606Z,100020.83
2023-06-30T01:48:25.225Z,100015.52
2023-06-30T01:50:54.293Z,100020.88
2023-06-30T01:53:25.662Z,100021.95
2023-06-30T01:55:55.792Z,100026.77
2023-06-30T01:58:27.023Z,100027.38
2023-06-30T02:00:56.631Z,100026.39
2023-06-30T02:03:24.783Z,100029.27
2023-06-30T02:05:57.382Z,100033.18
2023-06-30T02:08:25.152Z,100033.95
2023-06-30T02:10:55.396Z,100034.52
2023-06-30T02:13:23.550Z,100030.84
2023-06-30T02:16:05.677Z,100030.22
2023-06-30T02:18:40.990Z,100038.92
2023-06-30T02:21:09.211Z,100040.38
2023-06-30T02:23:37.033Z,100039.92
2023-06-30T02:26:04.902Z,100042.70
2023-06-30T02:28:35.741Z,100042.81
2023-06-30T02:31:04.255Z,100041.11
2023-06-30T02:33:32.500Z,100044.33
2023-06-30T02:36:00.387Z,100045.67
2023-06-30T02:38:30.282Z,100047.53
2023-06-30T02:40:58.664Z,100059.63
2023-06-30T02:43:27.995Z,100060.31
2023-06-30T02:45:56.105Z,100063.46
2023-06-30T02:48:24.522Z,100062.42
2023-06-30T02:50:52.418Z,100068.45
2023-06-30T02:53:25.275Z,100068.63
2023-06-30T02:55:53.138Z,100076.66
2023-06-30T02:58:23.907Z,100081.08
2023-06-30T03:00:56.618Z,100079.38
2023-06-30T03:03:27.377Z,100083.98
2023-06-30T03:05:56.592Z,100077.48
2023-06-30T03:08:25.071Z,100079.10
2023-06-30T03:10:53.037Z,100075.49
2023-06-30T03:13:20.914Z,100082.31
2023-06-30T03:15:53.706Z,100087.01
2023-06-30T03:18:22.507Z,100085.70
2023-06-30T03:20:54.954Z,100086.84
2023-06-30T03:23:25.407Z,100090.99
2023-06-30T03:25:56.118Z,100096.92
2023-06-30T03:28:26.239Z,100097.23
2023-06-30T03:30:58.263Z,100095.34
2023-06-30T03:33:27.589Z,100098.95
2023-06-30T03:35:55.682Z,100101.17
2023-06-30T03:38:28.976Z,100104.09
2023-06-30T03:41:00.799Z,100103.48
2023-06-30T03:43:38.944Z,100115.52
2023-06-30T03:46:12.567Z,100129.14
2023-06-30T03:48:44.615Z,100136.96
2023-06-30T03:51:18.520Z,100146.88
2023-06-30T03:53:54.787Z,100159.95
2023-06-30T03:56:30.646Z,100162.45
2023-06-30T03:59:01.990Z,100159.52
2023-06-30T04:01:30.268Z,100155.27
2023-06-30T04:04:04.787Z,100148.68
2023-06-30T04:06:40.866Z,100148.92
2023-06-30T04:09:23.471Z,100148.90
2023-06-30T04:11:59.222Z,100142.15
2023-06-30T04:14:35.402Z,100132.89
2023-06-30T04:17:04.168Z,100123.64
2023-06-30T04:19:35.044Z,100112.95
2023-06-30T04:22:06.665Z,100100.27
2023-06-30T04:24:36.994Z,100093.15
2023-06-30T04:27:05.372Z,100091.33
2023-06-30T04:29:40.529Z,100080.31
2023-06-30T04:32:13.095Z,100067.27
2023-06-30T04:34:43.744Z,100053.50
2023-06-30T04:37:11.710Z,100048.02
2023-06-30T04:39:49.396Z,100040.02
2023-06-30T04:42:17.982Z,100031.22
2023-06-30T04:44:47.187Z,100031.81
2023-06-30T04:50:07.078Z,100022.59
2023-06-30T04:52:41.705Z,100014.20
2023-06-30T04:55:14.086Z,100016.98
2023-06-30T05:05:22.461Z,100008.67
2023-06-30T05:07:50.315Z,100000.51
2023-06-30T05:10:18.209Z,99996.61
2023-06-30T05:12:48.199Z,99988.39
2023-06-30T05:15:16.085Z,99983.89
2023-06-30T05:17:44.654Z,99978.83
2023-06-30T05:20:13.673Z,99981.08
2023-06-30T05:22:41.515Z,99980.70
2023-06-30T05:25:09.892Z,99970.16
2023-06-30T05:27:43.115Z,99956.70
2023-06-30T05:30:22.641Z,99952.14
2023-06-30T05:32:53.104Z,99947.21
2023-06-30T05:35:21.027Z,99946.38
2023-06-30T05:37:57.804Z,99948.59
2023-06-30T05:40:27.359Z,99948.48
2023-06-30T05:43:11.158Z,99951.48
2023-06-30T05:45:40.551Z,99949.76
2023-06-30T05:48:10.774Z,99937.50
2023-06-30T05:50:41.486Z,99927.20
2023-06-30T05:53:11.733Z,99922.45
2023-06-30T05:55:39.499Z,99923.90
2023-06-30T05:58:13.205Z,99915.30
2023-06-30T06:00:45.167Z,99912.55
2023-06-30T06:03:18.422Z,99903.79
2023-06-30T06:05:54.093Z,99900.41
2023-06-30T06:08:25.565Z,99892.89
2023-06-30T06:10:53.663Z,99890.63
2023-06-30T06:13:47.626Z,99892.29
2023-06-30T06:16:18.382Z,99886.00
2023-06-30T06:18:47.964Z,99885.88
2023-06-30T06:21:18.092Z,99885.61
2023-06-30T06:23:45.959Z,99889.52
2023-06-30T06:26:13.721Z,99893.30
2023-06-30T06:28:41.591Z,99892.43
2023-06-30T06:31:20.939Z,99890.56
2023-06-30T06:33:48.999Z,99894.74
2023-06-30T06:36:23.029Z,99894.38
2023-06-30T06:38:55.093Z,99896.20
2023-06-30T06:41:27.857Z,99895.29
2023-06-30T06:43:55.945Z,99890.16
2023-06-30T06:46:26.318Z,99891.02
2023-06-30T06:48:59.558Z,99890.13
2023-06-30T06:51:35.008Z,99885.59
2023-06-30T06:54:05.120Z,99880.08
2023-06-30T06:56:33.088Z,99874.23
2023-06-30T06:59:00.968Z,99869.60
2023-06-30T07:01:38.080Z,99868.65
2023-06-30T07:04:06.377Z,99868.09
2023-06-30T07:06:34.594Z,99862.73
2023-06-30T07:09:05.801Z,99860.13
2023-06-30T07:11:37.262Z,99860.34
2023-06-30T07:14:05.160Z,99860.46
2023-06-30T07:16:38.083Z,99862.45
2023-06-30T07:19:08.403Z,99858.70
2023-06-30T07:21:36.369Z,99848.94
2023-06-30T07:24:15.778Z,99839.47
2023-06-30T07:26:50.509Z,99839.85
2023-06-30T07:29:26.174Z,99833.88
2023-06-30T07:31:59.319Z,99822.82
2023-06-30T07:34:37.380Z,99818.64
2023-06-30T07:37:07.769Z,99813.77
2023-06-30T07:39:41.403Z,99811.80
2023-06-30T07:42:12.542Z,99811.16
2023-06-30T07:44:44.820Z,99806.77
2023-06-30T07:47:15.125Z,99805.70
2023-06-30T07:49:43.404Z,99797.98
2023-06-30T07:52:18.135Z,99798.72
2023-06-30T07:55:03.104Z,99799.40
2023-06-30T07:57:44.451Z,99792.78
2023-06-30T08:00:16.530Z,99800.21
2023-06-30T08:02:47.037Z,99798.83
2023-06-30T08:05:15.293Z,99791.15
2023-06-30T08:07:51.347Z,99775.99
2023-06-30T08:10:25.226Z,99775.25
2023-06-30T08:12:58.423Z,99773.04
2023-06-30T08:15:30.997Z,99774.83
2023-06-30T08:17:59.105Z,99766.59
2023-06-30T08:20:31.088Z,99768.26
2023-06-30T08:23:17.135Z,99765.41
2023-06-30T08:25:45.264Z,99761.75
2023-06-30T08:28:13.378Z,99755.15
2023-06-30T08:30:41.293Z,99755.85
2023-06-30T08:33:10.895Z,99751.88
2023-06-30T08:35:55.616Z,99747.75
2023-06-30T08:38:23.800Z,99752.30
2023-06-30T08:40:54.749Z,99753.14
2023-06-30T08:43:24.138Z,99745.85
2023-06-30T08:46:03.733Z,99738.48
2023-06-30T08:48:33.400Z,99731.23
2023-06-30T08:51:04.949Z,99735.90
2023-06-30T08:53:32.968Z,99736.02
2023-06-30T08:56:05.924Z,99730.02
2023-06-30T08:58:33.894Z,99721.80
2023-06-30T09:01:02.937Z,99721.94
2023-06-30T09:03:30.796Z,99723.97
2023-06-30T09:06:03.324Z,99721.98
2023-06-30T09:08:40.018Z,99713.29
2023-06-30T09:11:13.490Z,99711.60
2023-06-30T09:13:44.326Z,99704.98
2023-06-30T09:16:20.816Z,99688.90
2023-06-30T09:18:51.942Z,99680.89
2023-06-30T09:21:22.800Z,99682.79
2023-06-30T09:23:56.176Z,99690.10
2023-06-30T09:26:31.506Z,99693.04
2023-06-30T09:29:00.616Z,99688.30
2023-06-30T09:31:35.481Z,99693.95
2023-06-30T09:34:14.282Z,99695.42
2023-06-30T09:36:55.581Z,99682.08
2023-06-30T09:39:26.410Z,99664.02
2023-06-30T09:41:59.397Z,99666.65
2023-06-30T09:44:29.090Z,99670.84
2023-06-30T09:46:56.979Z,99672.83
2023-06-30T09:49:31.918Z,99679.36
2023-06-30T09:52:03.081Z,99673.77
2023-06-30T09:57:06.560Z,99670.59
2023-06-30T09:59:35.857Z,99667.16
2023-06-30T10:02:11.728Z,99665.05
2023-06-30T10:04:39.681Z,99659.96
2023-06-30T10:07:07.592Z,99651.33
2023-06-30T10:09:35.520Z,99636.40
2023-06-30T10:12:06.530Z,99637.74
2023-06-30T10:14:34.425Z,99639.08
2023-06-30T10:17:03.546Z,99637.91
2023-06-30T10:19:31.598Z,99645.73
2023-06-30T10:21:59.801Z,99654.27
2023-06-30T10:24:28.568Z,99648.23
2023-06-30T10:26:59.716Z,99632.84
2023-06-30T10:29:27.585Z,99628.71
2023-06-30T10:32:02.301Z,99635.87
2023-06-30T10:34:33.496Z,99639.48
2023-06-30T10:37:02.142Z,99650.27
2023-06-30T10:39:30.109Z,99653.92
2023-06-30T10:42:01.481Z,99654.27
2023-06-30T10:44:46.320Z,99656.37
2023-06-30T10:47:15.575Z,99650.83
2023-06-30T10:49:43.494Z,99653.84
2023-06-30T10:52:41.567Z,99653.39
2023-06-30T10:55:10.260Z,99630.63
2023-06-30T10:57:41.010Z,99625.69
2023-06-30T11:00:13.337Z,99622.59
2023-06-30T11:02:51.113Z,99618.65
2023-06-30T11:05:30.510Z,99618.25
2023-06-30T11:08:08.716Z,99626.35
2023-06-30T11:10:46.234Z,99629.08
2023-06-30T11:13:14.487Z,99632.23
2023-06-30T11:15:53.376Z,99633.45
2023-06-30T11:18:27.400Z,99626.66
2023-06-30T11:21:05.836Z,99614.30
2023-06-30T11:23:41.103Z,99613.06
2023-06-30T11:26:18.022Z,99618.74
2023-06-30T11:28:52.389Z,99610.73
2023-06-30T11:31:32.894Z,99600.12
2023-06-30T11:34:03.252Z,99601.02
2023-06-30T11:36:32.774Z,99611.60
2023-06-30T11:39:01.998Z,99627.52
2023-06-30T11:41:33.656Z,99641.58
2023-06-30T11:44:01.502Z,99643.97
2023-06-30T11:46:37.617Z,99643.47
2023-06-30T11:49:05.736Z,99652.48
2023-06-30T11:51:38.836Z,99668.73
2023-06-30T11:54:08.044Z,99682.61
2023-06-30T11:56:41.026Z,99690.85
2023-06-30T11:59:08.881Z,99698.06
2023-06-30T12:01:44.122Z,99702.10
2023-06-30T12:04:17.234Z,99707.32
2023-06-30T12:06:45.902Z,99723.38
2023-06-30T12:09:13.781Z,99776.45
2023-06-30T12:11:47.779Z,99773.06
2023-06-30T12:14:22.924Z,99728.92
2023-06-30T12:16:54.914Z,99712.39
2023-06-30T12:19:29.632Z,99707.06
2023-06-30T12:22:02.123Z,99709.21
2023-06-30T12:24:36.274Z,99713.55
2023-06-30T12:27:08.364Z,99729.14
2023-06-30T12:29:37.998Z,99735.14
2023-06-30T12:32:15.878Z,99735.01
2023-06-30T12:34:47.689Z,99731.44
2023-06-30T12:37:20.038Z,99730.52
2023-06-30T12:39:56.287Z,99732.58
2023-06-30T12:42:32.982Z,99732.60
2023-06-30T12:45:05.300Z,99740.62
2023-06-30T12:47:34.426Z,99741.77
2023-06-30T12:50:04.550Z,99745.36
2023-06-30T12:52:40.116Z,99750.72
2023-06-30T12:55:13.807Z,99751.08
2023-06-30T12:57:46.798Z,99749.04
2023-06-30T13:00:16.393Z,99753.22
2023-06-30T13:02:49.439Z,99749.66
2023-06-30T13:05:24.331Z,99752.20
2023-06-30T13:07:55.209Z,99752.75
2023-06-30T13:10:34.705Z,99752.95
2023-06-30T13:13:04.818Z,99756.13
2023-06-30T13:15:47.474Z,99749.97
2023-06-30T13:18:19.414Z,99743.54
2023-06-30T13:20:50.027Z,99739.98
2023-06-30T13:23:32.378Z,99729.45
2023-06-30T13:26:09.726Z,99719.30
2023-06-30T13:28:40.066Z,99712.21
2023-06-30T13:31:13.002Z,99702.00
2023-06-30T13:33:54.422Z,99690.63
2023-06-30T13:36:29.376Z,99677.28
2023-06-30T13:39:03.693Z,99660.16
2023-06-30T13:41:38.829Z,99657.95
2023-06-30T13:44:12.027Z,99653.62
2023-06-30T13:46:44.907Z,99653.71
2023-06-30T13:49:19.308Z,99655.38
2023-06-30T13:51:59.572Z,99656.05
2023-06-30T13:54:32.564Z,99655.09
2023-06-30T13:57:15.608Z,99651.88
2023-06-30T13:59:48.272Z,99654.80
2023-06-30T14:02:22.553Z,99653.95
2023-06-30T14:04:50.626Z,99657.61
2023-06-30T14:07:35.021Z,99659.63
2023-06-30T14:10:04.815Z,99655.66
2023-06-30T14:12:43.080Z,99655.54
2023-06-30T14:15:13.773Z,99648.86
2023-06-30T14:17:46.609Z,99636.52
2023-06-30T14:20:23.741Z,99630.84
2023-06-30T14:22:56.519Z,99625.74
2023-06-30T14:25:30.444Z,99617.85
2023-06-30T14:27:58.426Z,99604.05
2023-06-30T14:30:40.210Z,99591.92
2023-06-30T14:33:08.091Z,99588.98
2023-06-30T14:35:43.755Z,99583.24
2023-06-30T14:38:12.810Z,99584.81
2023-06-30T14:40:54.157Z,99581.73
2023-06-30T14:43:27.910Z,99579.88
2023-06-30T14:45:56.181Z,99581.56
2023-06-30T14:48:25.795Z,99585.53
2023-06-30T14:50:56.759Z,99587.52
2023-06-30T14:53:32.585Z,99590.73
2023-06-30T14:56:00.448Z,99593.40
2023-06-30T14:58:31.188Z,99592.35
2023-06-30T15:00:59.086Z,99592.85
2023-06-30T15:03:36.206Z,99590.30
2023-06-30T15:06:04.934Z,99590.02
2023-06-30T15:08:36.712Z,99589.66
2023-06-30T15:11:19.762Z,99593.91
2023-06-30T15:13:55.178Z,99602.80
2023-06-30T15:16:25.829Z,99611.67
2023-06-30T15:19:01.336Z,99619.38
2023-06-30T15:21:34.833Z,99629.23
2023-06-30T15:24:02.808Z,99633.05
2023-06-30T15:26:35.691Z,99641.76
2023-06-30T15:29:12.495Z,99639.91
2023-06-30T15:31:48.185Z,99644.91
2023-06-30T15:34:23.258Z,99645.65
2023-06-30T15:36:56.150Z,99657.58
2023-06-30T15:39:34.476Z,99657.16
2023-06-30T15:42:03.766Z,99657.46
2023-06-30T15:44:43.812Z,99658.80
2023-06-30T15:47:21.834Z,99654.94
2023-06-30T15:49:54.501Z,99657.64
2023-06-30T15:52:23.191Z,99653.20
2023-06-30T15:55:14.720Z,99651.19
2023-06-30T15:57:45.782Z,99645.09
2023-06-30T16:00:15.409Z,99642.01
2023-06-30T16:02:45.177Z,99645.49
2023-06-30T16:05:16.071Z,99642.93
2023-06-30T16:07:49.099Z,99641.27
2023-06-30T16:10:17.279Z,99639.49
2023-06-30T16:12:50.210Z,99639.61
2023-06-30T16:15:21.000Z,99641.08
2023-06-30T16:17:50.831Z,99636.40
2023-06-30T16:20:18.784Z,99632.13
2023-06-30T16:22:47.167Z,99625.87
2023-06-30T16:25:15.238Z,99621.43
2023-06-30T16:27:51.096Z,99617.81
2023-06-30T16:30:31.252Z,99611.63
2023-06-30T16:33:02.180Z,99601.10
2023-06-30T16:35:36.010Z,99594.35
2023-06-30T16:38:09.927Z,99592.98
2023-06-30T16:40:40.769Z,99594.41
2023-06-30T16:43:08.714Z,99594.48
2023-06-30T16:45:36.812Z,99597.05
2023-06-30T16:48:06.029Z,99613.69
2023-06-30T16:50:35.000Z,99622.73
2023-06-30T16:53:02.953Z,99651.61
2023-06-30T16:55:37.270Z,99681.61
2023-06-30T16:58:15.386Z,99684.80
2023-06-30T17:01:01.748Z,99678.41
2023-06-30T17:03:34.462Z,99681.84
2023-06-30T17:07:23.860Z,99715.47
2023-06-30T17:10:01.059Z,99723.39
2023-06-30T17:12:40.279Z,99720.98
2023-06-30T17:15:23.390Z,99729.46
2023-06-30T17:17:51.496Z,99743.98
2023-06-30T17:20:19.433Z,99745.48
2023-06-30T17:22:55.699Z,99743.31
2023-06-30T17:25:53.599Z,99751.23
2023-06-30T17:28:24.316Z,99757.45
2023-06-30T17:31:03.042Z,99760.93
2023-06-30T17:33:31.932Z,99768.95
2023-06-30T17:36:12.819Z,99778.63
2023-06-30T17:38:58.560Z,99780.09
2023-06-30T17:41:34.019Z,99797.30
2023-06-30T17:44:07.613Z,99805.95
2023-06-30T17:46:48.351Z,99813.97
2023-06-30T17:49:25.599Z,99826.77
2023-06-30T17:51:54.103Z,99836.04
2023-06-30T17:54:23.683Z,99847.52
2023-06-30T17:56:57.171Z,99857.53
2023-06-30T17:59:27.288Z,99865.30
2023-06-30T18:02:09.509Z,99867.88
2023-06-30T18:04:48.944Z,99866.83
2023-06-30T18:07:20.397Z,99878.79
2023-06-30T18:09:56.247Z,99878.88
2023-06-30T18:12:31.503Z,99873.38
2023-06-30T18:15:11.157Z,99865.91
2023-06-30T18:17:42.202Z,99860.38
2023-06-30T18:20:27.751Z,99862.30
2023-06-30T18:23:10.565Z,99862.80
2023-06-30T18:25:58.017Z,99861.88
2023-06-30T18:28:31.489Z,99869.02
2023-06-30T18:31:10.112Z,99872.95
2023-06-30T18:33:48.836Z,99875.05
2023-06-30T18:36:16.806Z,99873.71
2023-06-30T18:38:51.737Z,99877.41
2023-06-30T18:41:25.132Z,99877.50
2023-06-30T18:44:10.936Z,99875.14
2023-06-30T18:46:42.143Z,99882.43
2023-06-30T18:49:13.185Z,99883.94
2023-06-30T18:51:45.339Z,99883.79
2023-06-30T18:54:14.495Z,99884.94
2023-06-30T18:56:57.503Z,99886.48
2023-06-30T18:59:40.113Z,99888.30
2023-06-30T19:02:15.020Z,99885.81
2023-06-30T19:04:50.970Z,99884.78
2023-06-30T19:07:23.910Z,99884.92
2023-06-30T19:09:52.900Z,99886.90
2023-06-30T19:12:25.691Z,99888.55
2023-06-30T19:15:05.013Z,99893.52
2023-06-30T19:17:38.339Z,99888.69
2023-06-30T19:20:14.470Z,99895.66
2023-06-30T19:22:48.400Z,99898.33
2023-06-30T19:25:20.345Z,99900.67
2023-06-30T19:27:50.797Z,99904.23
2023-06-30T19:30:44.459Z,99910.05
2023-06-30T19:33:30.447Z,99912.42
2023-06-30T19:35:59.153Z,99913.11
2023-06-30T19:38:32.127Z,99914.30
2023-06-30T19:41:15.161Z,99919.48
2023-06-30T19:43:51.608Z,99921.88
2023-06-30T19:46:32.750Z,99926.94
2023-06-30T19:49:03.551Z,99929.35
2023-06-30T19:51:31.926Z,99931.25
2023-06-30T19:54:07.197Z,99934.67
2023-06-30T19:56:39.698Z,99930.68
2023-06-30T19:59:14.860Z,99926.92
2023-06-30T20:01:46.558Z,99921.04
2023-06-30T20:04:14.560Z,99922.85
2023-06-30T20:06:42.563Z,99923.27
2023-06-30T20:09:16.269Z,99920.81
2023-06-30T20:11:48.672Z,99922.03
2023-06-30T20:14:21.426Z,99926.35
2023-06-30T20:16:49.828Z,99923.88
2023-06-30T20:19:18.315Z,99926.00
2023-06-30T20:21:51.318Z,99926.19
2023-06-30T20:24:19.135Z,99926.42
2023-06-30T20:27:08.533Z,99927.64
2023-06-30T20:29:41.601Z,99928.87
2023-06-30T20:32:10.671Z,99929.48
2023-06-30T20:34:43.941Z,99929.61
2023-06-30T20:37:12.069Z,99931.11
2023-06-30T20:40:14.139Z,99931.72
2023-06-30T20:42:48.470Z,99931.98
2023-06-30T20:45:21.370Z,99935.30
2023-06-30T20:47:49.680Z,99936.70
2023-06-30T20:50:20.560Z,99937.06
2023-06-30T20:52:54.674Z,99941.78
2023-06-30T20:55:26.653Z,99951.51
2023-06-30T20:58:02.115Z,99951.00
2023-06-30T21:00:35.005Z,99957.27
2023-06-30T21:03:03.005Z,99959.02
2023-06-30T21:05:33.682Z,99963.86
2023-06-30T21:08:04.212Z,99965.10
2023-06-30T21:10:37.703Z,99968.79
2023-06-30T21:13:12.437Z,99966.04
2023-06-30T21:16:00.821Z,99960.35
2023-06-30T21:18:36.252Z,99964.03
2023-06-30T21:21:04.203Z,99964.09
2023-06-30T21:23:32.072Z,99966.85
2023-06-30T21:26:08.550Z,99969.54
2023-06-30T21:28:37.024Z,99972.88
2023-06-30T21:31:07.341Z,99980.49
2023-06-30T21:33:42.594Z,99981.91
2023-06-30T21:36:17.631Z,99984.50
2023-06-30T21:38:45.590Z,99988.02
2023-06-30T21:41:15.401Z,99994.92
2023-06-30T21:43:43.684Z,99993.05
2023-06-30T21:46:17.273Z,99984.60
2023-06-30T21:49:00.098Z,99982.89
2023-06-30T21:51:28.379Z,99985.83
2023-06-30T21:53:57.486Z,99983.94
2023-06-30T21:56:27.806Z,99983.59
2023-06-30T21:58:58.126Z,99983.13
2023-06-30T22:01:35.906Z,99980.95
2023-06-30T22:04:14.738Z,99983.38
2023-06-30T22:07:03.717Z,99987.92
2023-06-30T22:09:40.712Z,99985.53
2023-06-30T22:12:09.176Z,99980.05
2023-06-30T22:14:43.908Z,99976.12
2023-06-30T22:17:16.793Z,99982.02
2023-06-30T22:19:50.515Z,99981.05
2023-06-30T22:22:33.527Z,99977.48
2023-06-30T22:25:07.193Z,99982.70
2023-06-30T22:27:35.960Z,99989.13
2023-06-30T22:30:11.702Z,99993.35
2023-06-30T22:32:45.618Z,99998.62
2023-06-30T22:35:13.658Z,99997.88
2023-06-30T22:37:41.621Z,99998.02
2023-06-30T22:40:10.126Z,100000.75
2023-06-30T22:42:44.768Z,99999.66
2023-06-30T22:45:17.611Z,100001.93
2023-06-30T22:47:59.529Z,100002.55
2023-06-30T22:50:32.634Z,100004.04
2023-06-30T22:53:05.813Z,100002.21
2023-06-30T22:55:36.121Z,100002.39
2023-06-30T22:58:09.112Z,100000.25
2023-06-30T23:01:03.058Z,99994.97
2023-06-30T23:03:31.282Z,99998.96
2023-06-30T23:06:02.004Z,100003.20
2023-06-30T23:08:35.012Z,99999.13
2023-06-30T23:11:07.666Z,100000.92
2023-06-30T23:13:41.164Z,100006.28
2023-06-30T23:16:23.471Z,100014.65
2023-06-30T23:19:03.135Z,100024.13
2023-06-30T23:21:34.262Z,100023.38
2023-06-30T23:24:24.166Z,100026.77
2023-06-30T23:27:04.303Z,100029.77
2023-06-30T23:29:39.470Z,100033.92
2023-06-30T23:32:17.365Z,100032.66
2023-06-30T23:34:45.515Z,100030.31
2023-06-30T23:37:18.558Z,100034.20
2023-06-30T23:39:49.495Z,100031.35
2023-06-30T23:42:25.812Z,100031.36
2023-06-30T23:44:53.782Z,100033.82
2023-06-30T23:47:22.393Z,100029.13
2023-06-30T23:49:55.053Z,100034.16
2023-06-30T23:52:25.887Z,100037.71
2023-06-30T23:55:09.422Z,100036.35
2023-06-30T23:57:51.754Z,100035.29
